createdAt,value
2022-09-15T00:00:32.932Z,96619.94
2022-09-15T00:03:00.082Z,96623.13
2022-09-15T00:05:27.275Z,96634.44
2022-09-15T00:07:54.351Z,96638.72
2022-09-15T00:10:21.508Z,96634.28
2022-09-15T00:12:48.629Z,96630.78
2022-09-15T00:15:17.137Z,96634.44
2022-09-15T00:17:49.252Z,96645.25
2022-09-15T00:20:17.015Z,96636.19
2022-09-15T00:22:44.112Z,96630.78
2022-09-15T00:25:12.016Z,96631.88
2022-09-15T00:27:39.130Z,96629.66
2022-09-15T00:30:08.276Z,96628.53
2022-09-15T00:32:36.730Z,96637.78
2022-09-15T00:35:04.315Z,96625.38
2022-09-15T00:37:31.428Z,96629.66
2022-09-15T00:39:58.519Z,96625.38
2022-09-15T00:42:25.935Z,96619.00
2022-09-15T00:44:56.611Z,96622.84
2022-09-15T00:47:28.708Z,96619.81
2022-09-15T00:50:02.145Z,96604.66
2022-09-15T00:52:34.520Z,96607.50
2022-09-15T00:55:05.810Z,96593.31
2022-09-15T00:57:37.014Z,96609.91
2022-09-15T01:03:12.482Z,96595.22
2022-09-15T01:05:48.364Z,96606.41
2022-09-15T01:08:20.031Z,96588.22
2022-09-15T01:10:47.129Z,96584.72
2022-09-15T01:13:15.254Z,96590.94
2022-09-15T01:15:57.568Z,96583.13
2022-09-15T01:18:32.330Z,96581.66
2022-09-15T01:21:34.900Z,96583.13
2022-09-15T01:24:29.309Z,96582.81
2022-09-15T01:27:30.432Z,96578.03
2022-09-15T01:30:03.455Z,96572.63
2022-09-15T01:32:37.560Z,96572.16
2022-09-15T01:35:19.275Z,96571.53
2022-09-15T01:37:52.958Z,96578.72
2022-09-15T01:40:23.759Z,96579.50
2022-09-15T01:42:53.007Z,96583.44
2022-09-15T01:45:25.287Z,96577.25
2022-09-15T01:47:54.567Z,96581.66
2022-09-15T01:50:24.197Z,96577.25
2022-09-15T01:52:55.948Z,96573.75
2022-09-15T01:55:30.584Z,96569.25
2022-09-15T01:57:58.188Z,96574.22
2022-09-15T02:00:26.624Z,96561.13
2022-09-15T02:03:01.037Z,96559.22
2022-09-15T02:05:34.536Z,96556.81
2022-09-15T02:08:04.796Z,96549.84
2022-09-15T02:10:37.444Z,96552.56
2022-09-15T02:13:11.214Z,96549.06
2022-09-15T02:15:43.201Z,96545.53
2022-09-15T02:18:17.211Z,96550.16
2022-09-15T02:20:47.990Z,96554.78
2022-09-15T02:23:19.870Z,96550.50
2022-09-15T02:25:49.977Z,96555.28
2022-09-15T02:28:20.953Z,96554.84
2022-09-15T02:30:53.408Z,96563.88
2022-09-15T02:33:25.107Z,96560.53
2022-09-15T02:35:52.850Z,96543.53
2022-09-15T02:38:20.149Z,96548.25
2022-09-15T02:40:48.088Z,96549.38
2022-09-15T02:43:17.460Z,96549.53
2022-09-15T02:45:44.686Z,96548.25
2022-09-15T02:48:13.148Z,96555.25
2022-09-15T02:50:40.368Z,96558.44
2022-09-15T02:53:07.907Z,96551.41
2022-09-15T02:55:35.127Z,96547.13
2022-09-15T02:58:02.202Z,96542.81
2022-09-15T03:00:29.542Z,96538.22
2022-09-15T03:02:56.704Z,96540.44
2022-09-15T03:05:27.863Z,96536.94
2022-09-15T03:07:55.723Z,96530.75
2022-09-15T03:10:24.445Z,96534.22
2022-09-15T03:12:53.575Z,96538.53
2022-09-15T03:15:23.039Z,96537.63
2022-09-15T03:17:50.167Z,96547.63
2022-09-15T03:20:19.065Z,96547.53
2022-09-15T03:22:47.652Z,96543.03
2022-09-15T03:25:14.842Z,96546.06
2022-09-15T03:27:42.048Z,96551.16
2022-09-15T03:30:10.645Z,96548.91
2022-09-15T03:32:37.740Z,96551.09
2022-09-15T03:35:06.166Z,96541.03
2022-09-15T03:37:33.673Z,96548.56
2022-09-15T03:40:03.132Z,96556.03
2022-09-15T03:42:30.305Z,96542.50
2022-09-15T03:44:57.405Z,96549.38
2022-09-15T03:47:24.535Z,96545.84
2022-09-15T03:49:51.638Z,96551.28
2022-09-15T03:52:18.795Z,96539.97
2022-09-15T03:54:47.823Z,96542.34
2022-09-15T03:57:16.285Z,96546.22
2022-09-15T03:59:43.443Z,96546.22
2022-09-15T04:02:10.616Z,96543.50
2022-09-15T04:04:37.725Z,96534.56
2022-09-15T04:07:04.980Z,96541.13
2022-09-15T04:09:32.077Z,96533.78
2022-09-15T04:11:59.171Z,96536.69
2022-09-15T04:14:27.647Z,96531.28
2022-09-15T04:16:54.743Z,96528.34
2022-09-15T04:19:21.847Z,96528.50
2022-09-15T04:21:48.938Z,96525.00
2022-09-15T04:24:16.568Z,96521.38
2022-09-15T04:26:43.982Z,96522.63
2022-09-15T04:29:13.332Z,96520.56
2022-09-15T04:31:43.892Z,96521.47
2022-09-15T04:34:11.047Z,96522.94
2022-09-15T04:36:38.180Z,96521.00
2022-09-15T04:39:05.486Z,96526.44
2022-09-15T04:41:33.268Z,96528.03
2022-09-15T04:44:00.445Z,96518.31
2022-09-15T04:46:27.745Z,96522.47
2022-09-15T04:48:56.807Z,96526.78
2022-09-15T04:51:24.179Z,96515.50
2022-09-15T04:53:51.861Z,96518.66
2022-09-15T04:56:21.934Z,96520.56
2022-09-15T04:58:50.997Z,96520.56
2022-09-15T05:01:20.868Z,96514.34
2022-09-15T05:03:48.361Z,96516.91
2022-09-15T05:06:18.856Z,96508.94
2022-09-15T05:08:47.473Z,96517.84
2022-09-15T05:11:14.869Z,96512.09
2022-09-15T05:13:42.672Z,96512.09
2022-09-15T05:16:11.801Z,96514.50
2022-09-15T05:18:40.281Z,96510.19
2022-09-15T05:21:09.862Z,96516.06
2022-09-15T05:23:38.354Z,96522.63
2022-09-15T05:26:07.456Z,96521.16
2022-09-15T05:28:36.338Z,96517.34
2022-09-15T05:31:08.817Z,96526.25
2022-09-15T05:33:36.086Z,96524.50
2022-09-15T05:36:03.842Z,96533.06
2022-09-15T05:38:32.160Z,96531.97
2022-09-15T05:41:03.797Z,96524.06
2022-09-15T05:43:31.318Z,96525.31
2022-09-15T05:45:58.620Z,96521.50
2022-09-15T05:48:25.744Z,96521.31
2022-09-15T05:50:54.151Z,96525.69
2022-09-15T05:53:21.860Z,96527.31
2022-09-15T05:55:49.233Z,96520.94
2022-09-15T05:58:17.668Z,96532.41
2022-09-15T06:00:44.779Z,96526.16
2022-09-15T06:03:14.637Z,96523.50
2022-09-15T06:05:42.011Z,96532.81
2022-09-15T06:08:09.324Z,96523.66
2022-09-15T06:10:36.730Z,96527.16
2022-09-15T06:13:03.833Z,96528.16
2022-09-15T06:15:32.522Z,96525.88
2022-09-15T06:17:59.640Z,96520.50
2022-09-15T06:20:26.860Z,96517.75
2022-09-15T06:22:53.993Z,96509.78
2022-09-15T06:25:21.077Z,96519.66
2022-09-15T06:27:49.092Z,96519.56
2022-09-15T06:30:16.469Z,96516.41
2022-09-15T06:32:48.055Z,96526.53
2022-09-15T06:35:15.768Z,96536.47
2022-09-15T06:37:42.913Z,96543.19
2022-09-15T06:40:11.034Z,96544.13
2022-09-15T06:42:38.212Z,96546.31
2022-09-15T06:45:05.878Z,96550.09
2022-09-15T06:47:32.982Z,96548.91
2022-09-15T06:50:01.627Z,96535.28
2022-09-15T06:52:28.755Z,96547.66
2022-09-15T06:54:55.829Z,96556.19
2022-09-15T06:57:22.940Z,96560.28
2022-09-15T06:59:50.033Z,96560.44
2022-09-15T07:02:17.223Z,96554.28
2022-09-15T07:04:44.425Z,96564.34
2022-09-15T07:07:12.871Z,96562.38
2022-09-15T07:09:41.436Z,96557.47
2022-09-15T07:12:09.043Z,96566.88
2022-09-15T07:14:36.147Z,96561.81
2022-09-15T07:17:03.275Z,96562.50
2022-09-15T07:19:30.475Z,96558.56
2022-09-15T07:21:57.741Z,96570.31
2022-09-15T07:24:26.168Z,96569.22
2022-09-15T07:26:53.274Z,96570.16
2022-09-15T07:29:20.379Z,96575.56
2022-09-15T07:31:47.559Z,96571.47
2022-09-15T07:34:14.659Z,96577.00
2022-09-15T07:36:41.768Z,96580.88
2022-09-15T07:39:08.854Z,96575.97
2022-09-15T07:41:38.466Z,96579.44
2022-09-15T07:44:06.968Z,96583.56
2022-09-15T07:46:34.057Z,96586.91
2022-09-15T07:49:01.739Z,96585.00
2022-09-15T07:51:28.843Z,96583.41
2022-09-15T07:53:56.584Z,96576.44
2022-09-15T07:56:23.657Z,96575.66
2022-09-15T07:58:52.339Z,96583.75
2022-09-15T08:01:20.474Z,96574.25
2022-09-15T08:03:49.560Z,96565.50
2022-09-15T08:06:18.630Z,96567.72
2022-09-15T08:08:46.297Z,96572.81
2022-09-15T08:11:18.636Z,96569.50
2022-09-15T08:13:46.631Z,96563.25
2022-09-15T08:16:16.892Z,96562.31
2022-09-15T08:18:44.589Z,96567.88
2022-09-15T08:21:14.058Z,96572.97
2022-09-15T08:23:41.378Z,96574.88
2022-09-15T08:26:14.180Z,96584.25
2022-09-15T08:28:42.395Z,96597.13
2022-09-15T08:31:12.410Z,96596.31
2022-09-15T08:33:45.490Z,96583.13
2022-09-15T08:36:13.386Z,96599.53
2022-09-15T08:38:41.044Z,96591.44
2022-09-15T08:41:18.841Z,96603.84
2022-09-15T08:43:49.933Z,96595.44
2022-09-15T08:46:22.765Z,96588.59
2022-09-15T08:49:02.632Z,96593.34
2022-09-15T08:51:36.502Z,96592.72
2022-09-15T08:54:10.847Z,96590.81
2022-09-15T08:56:40.014Z,96595.44
2022-09-15T08:59:12.100Z,96594.31
2022-09-15T09:01:51.815Z,96597.03
2022-09-15T09:04:36.152Z,96608.78
2022-09-15T09:07:14.506Z,96614.50
2022-09-15T09:09:48.505Z,96604.31
2022-09-15T09:12:20.623Z,96607.84
2022-09-15T09:15:02.719Z,96612.09
2022-09-15T09:17:48.094Z,96611.63
2022-09-15T09:20:32.352Z,96608.44
2022-09-15T09:23:01.081Z,96607.66
2022-09-15T09:25:28.577Z,96605.75
2022-09-15T09:27:56.940Z,96613.56
2022-09-15T09:30:27.610Z,96612.75
2022-09-15T09:33:17.417Z,96610.84
2022-09-15T09:35:49.388Z,96612.59
2022-09-15T09:38:20.885Z,96613.06
2022-09-15T09:40:49.437Z,96613.53
2022-09-15T09:43:17.009Z,96605.44
2022-09-15T09:45:44.179Z,96611.97
2022-09-15T09:48:17.349Z,96608.47
2022-09-15T09:50:46.599Z,96609.25
2022-09-15T09:53:19.682Z,96604.66
2022-09-15T09:55:46.813Z,96605.78
2022-09-15T09:58:18.528Z,96594.97
2022-09-15T10:00:46.323Z,96597.19
2022-09-15T10:03:17.058Z,96608.00
2022-09-15T10:05:59.804Z,96611.97
2022-09-15T10:08:27.376Z,96607.22
2022-09-15T10:10:59.213Z,96615.16
2022-09-15T10:13:26.466Z,96614.03
2022-09-15T10:15:56.960Z,96616.25
2022-09-15T10:18:30.049Z,96610.06
2022-09-15T10:20:59.874Z,96612.13
2022-09-15T10:23:28.727Z,96616.09
2022-09-15T10:26:00.203Z,96617.69
2022-09-15T10:28:28.283Z,96621.66
2022-09-15T10:31:01.769Z,96616.44
2022-09-15T10:33:31.017Z,96612.91
2022-09-15T10:36:04.171Z,96616.25
2022-09-15T10:38:38.895Z,96613.91
2022-09-15T10:41:17.606Z,96626.75
2022-09-15T10:44:02.493Z,96639.47
2022-09-15T10:46:39.472Z,96637.88
2022-09-15T10:49:23.422Z,96636.63
2022-09-15T10:52:05.343Z,96639.31
2022-09-15T10:55:00.152Z,96640.91
2022-09-15T10:57:44.508Z,96628.19
2022-09-15T11:00:16.739Z,96633.28
2022-09-15T11:03:24.693Z,96639.31
2022-09-15T11:06:04.172Z,96632.66
2022-09-15T11:08:45.560Z,96624.84
2022-09-15T11:11:18.493Z,96625.31
2022-09-15T11:14:06.275Z,96626.59
2022-09-15T11:16:48.013Z,96622.00
2022-09-15T11:19:30.858Z,96627.88
2022-09-15T11:22:03.096Z,96629.78
2022-09-15T11:24:41.013Z,96625.66
2022-09-15T11:27:16.624Z,96625.66
2022-09-15T11:30:01.405Z,96620.25
2022-09-15T11:32:34.704Z,96634.41
2022-09-15T11:35:22.301Z,96634.88
2022-09-15T11:37:52.725Z,96627.09
2022-09-15T11:40:27.509Z,96622.94
2022-09-15T11:42:59.523Z,96620.22
2022-09-15T11:45:34.390Z,96615.47
2022-09-15T11:48:06.297Z,96613.88
2022-09-15T11:50:37.656Z,96614.34
2022-09-15T11:53:13.781Z,96615.16
2022-09-15T11:55:49.084Z,96619.94
2022-09-15T11:58:22.730Z,96621.50
2022-09-15T12:00:54.870Z,96614.19
2022-09-15T12:03:27.483Z,96620.06
2022-09-15T12:05:58.315Z,96617.84
2022-09-15T12:08:31.953Z,96622.94
2022-09-15T12:11:05.821Z,96620.41
2022-09-15T12:13:33.380Z,96623.88
2022-09-15T12:16:01.944Z,96629.47
2022-09-15T12:18:41.051Z,96638.84
2022-09-15T12:21:17.136Z,96641.88
2022-09-15T12:23:51.037Z,96634.56
2022-09-15T12:26:20.775Z,96649.66
2022-09-15T12:28:56.716Z,96645.38
2022-09-15T12:31:35.937Z,96638.84
2022-09-15T12:34:05.965Z,96647.28
2022-09-15T12:36:42.576Z,96646.00
2022-09-15T12:39:26.179Z,96642.81
2022-09-15T12:41:57.436Z,96630.09
2022-09-15T12:44:34.482Z,96636.47
2022-09-15T12:47:04.507Z,96639.47
2022-09-15T12:49:35.446Z,96640.91
2022-09-15T12:52:06.647Z,96646.31
2022-09-15T12:54:35.888Z,96645.81
2022-09-15T12:57:05.544Z,96636.47
2022-09-15T12:59:32.663Z,96645.03
2022-09-15T13:01:59.819Z,96648.69
2022-09-15T13:04:51.187Z,96643.94
2022-09-15T13:07:33.064Z,96646.63
2022-09-15T13:10:24.660Z,96645.84
2022-09-15T13:13:04.141Z,96637.41
2022-09-15T13:15:34.749Z,96634.72
2022-09-15T13:18:05.567Z,96637.09
2022-09-15T13:20:38.090Z,96641.84
2022-09-15T13:23:09.291Z,96642.50
2022-09-15T13:25:40.185Z,96637.09
2022-09-15T13:30:53.027Z,96633.59
2022-09-15T13:39:40.151Z,96620.06
2022-09-15T13:42:32.161Z,96623.44
2022-09-15T13:45:30.002Z,96613.72
2022-09-15T13:48:19.126Z,96617.53
2022-09-15T13:50:55.401Z,96605.28
2022-09-15T13:53:38.792Z,96603.84
2022-09-15T13:56:08.344Z,96604.16
2022-09-15T14:01:25.234Z,96594.47
2022-09-15T14:03:54.807Z,96607.38
2022-09-15T14:06:25.706Z,96615.13
2022-09-15T14:08:55.983Z,96611.16
2022-09-15T14:11:27.962Z,96610.84
2022-09-15T14:13:56.666Z,96610.84
2022-09-15T14:16:32.625Z,96608.94
2022-09-15T14:19:01.281Z,96609.41
2022-09-15T14:21:30.638Z,96611.66
2022-09-15T14:23:59.353Z,96615.94
2022-09-15T14:26:29.356Z,96611.84
2022-09-15T14:28:58.500Z,96617.53
2022-09-15T14:31:32.649Z,96623.72
2022-09-15T14:34:00.987Z,96617.25
2022-09-15T14:36:30.185Z,96625.00
2022-09-15T14:39:05.839Z,96625.00
2022-09-15T14:41:32.966Z,96639.94
2022-09-15T14:44:00.049Z,96642.00
2022-09-15T14:46:37.250Z,96644.56
2022-09-15T14:49:10.611Z,96646.47
2022-09-15T14:51:38.933Z,96657.91
2022-09-15T14:54:09.298Z,96666.03
2022-09-15T14:56:40.681Z,96665.41
2022-09-15T14:59:11.776Z,96671.00
2022-09-15T15:01:42.624Z,96656.66
2022-09-15T15:04:20.402Z,96651.56
2022-09-15T15:06:55.129Z,96664.78
2022-09-15T15:09:28.952Z,96672.38
2022-09-15T15:12:00.650Z,96686.72
2022-09-15T15:14:28.826Z,96699.78
2022-09-15T15:17:00.813Z,96699.44
2022-09-15T15:19:35.077Z,96711.06
2022-09-15T15:22:16.995Z,96716.78
2022-09-15T15:24:47.301Z,96717.72
2022-09-15T15:27:43.022Z,96722.81
2022-09-15T15:30:33.118Z,96712.81
2022-09-15T15:33:04.030Z,96717.28
2022-09-15T15:35:32.418Z,96716.66
2022-09-15T15:38:02.304Z,96714.91
2022-09-15T15:40:29.967Z,96723.34
2022-09-15T15:43:02.812Z,96727.63
2022-09-15T15:45:30.931Z,96728.09
2022-09-15T15:47:58.321Z,96728.75
2022-09-15T15:50:27.439Z,96738.78
2022-09-15T15:52:54.813Z,96740.38
2022-09-15T15:55:23.830Z,96733.50
2022-09-15T15:57:52.681Z,96734.00
2022-09-15T16:00:22.924Z,96732.09
2022-09-15T16:02:50.986Z,96734.00
2022-09-15T16:05:18.787Z,96735.09
2022-09-15T16:07:49.896Z,96734.31
2022-09-15T16:10:19.832Z,96735.41
2022-09-15T16:12:47.909Z,96745.13
2022-09-15T16:15:17.589Z,96750.53
2022-09-15T16:17:46.885Z,96748.94
2022-09-15T16:20:15.024Z,96752.44
2022-09-15T16:22:42.915Z,96761.16
2022-09-15T16:25:15.723Z,96758.03
2022-09-15T16:27:42.829Z,96758.81
2022-09-15T16:30:10.596Z,96765.00
2022-09-15T16:32:38.705Z,96771.56
2022-09-15T16:35:23.704Z,96771.25
2022-09-15T16:37:50.819Z,96774.72
2022-09-15T16:40:19.396Z,96776.13
2022-09-15T16:42:47.507Z,96783.47
2022-09-15T16:45:23.040Z,96784.13
2022-09-15T16:47:50.148Z,96789.03
2022-09-15T16:50:17.233Z,96793.66
2022-09-15T16:52:44.432Z,96794.75
2022-09-15T16:55:21.172Z,96787.78
2022-09-15T16:57:48.268Z,96791.88
2022-09-15T17:00:16.017Z,96801.13
2022-09-15T17:02:43.138Z,96809.25
2022-09-15T17:05:17.190Z,96813.53
2022-09-15T17:07:44.322Z,96818.94
2022-09-15T17:10:11.505Z,96811.94
2022-09-15T17:12:40.030Z,96816.84
2022-09-15T17:15:23.172Z,96815.25
2022-09-15T17:17:50.640Z,96818.41
2022-09-15T17:20:18.423Z,96809.53
2022-09-15T17:22:46.250Z,96824.97
2022-09-15T17:25:19.973Z,96829.59
2022-09-15T17:27:48.477Z,96825.94
2022-09-15T17:30:16.741Z,96824.34
2022-09-15T17:32:44.812Z,96828.81
2022-09-15T17:35:16.845Z,96831.53
2022-09-15T17:37:44.500Z,96832.31
2022-09-15T17:40:13.003Z,96839.94
2022-09-15T17:42:40.508Z,96842.66
2022-09-15T17:45:23.625Z,96849.16
2022-09-15T17:47:51.197Z,96857.09
2022-09-15T17:50:20.308Z,96854.41
2022-09-15T17:52:48.450Z,96858.88
2022-09-15T17:55:21.084Z,96863.31
2022-09-15T17:57:49.064Z,96866.31
2022-09-15T18:00:18.757Z,96873.03
2022-09-15T18:02:51.283Z,96874.94
2022-09-15T18:05:21.420Z,96880.63
2022-09-15T18:07:48.767Z,96886.84
2022-09-15T18:10:16.805Z,96886.84
2022-09-15T18:12:46.899Z,96885.75
2022-09-15T18:15:18.549Z,96886.22
2022-09-15T18:17:45.680Z,96892.94
2022-09-15T18:20:16.491Z,96901.06
2022-09-15T18:22:44.748Z,96894.53
2022-09-15T18:25:20.923Z,96905.69
2022-09-15T18:27:47.997Z,96906.19
2022-09-15T18:30:16.732Z,96915.59
2022-09-15T18:32:44.311Z,96916.53
2022-09-15T18:35:17.704Z,96927.50
2022-09-15T18:37:47.732Z,96924.50
2022-09-15T18:40:17.502Z,96926.72
2022-09-15T18:42:45.367Z,96930.88
2022-09-15T18:45:14.781Z,96935.47
2022-09-15T18:47:42.092Z,96924.47
2022-09-15T18:50:11.855Z,96928.16
2022-09-15T18:52:41.687Z,96925.28
2022-09-15T18:55:13.690Z,96926.72
2022-09-15T18:57:41.525Z,96930.69
2022-09-15T19:00:10.963Z,96935.31
2022-09-15T19:02:38.353Z,96938.47
2022-09-15T19:05:06.274Z,96937.06
2022-09-15T19:07:33.691Z,96938.97
2022-09-15T19:10:00.780Z,96942.16
2022-09-15T19:12:29.187Z,96942.97
2022-09-15T19:14:56.276Z,96946.16
2022-09-15T19:17:23.379Z,96949.81
2022-09-15T19:19:50.459Z,96947.59
2022-09-15T19:22:17.612Z,96944.41
2022-09-15T19:24:44.680Z,96960.16
2022-09-15T19:27:11.768Z,96954.44
2022-09-15T19:29:40.236Z,96958.53
2022-09-15T19:32:09.933Z,96958.25
2022-09-15T19:34:38.017Z,96955.53
2022-09-15T19:37:10.685Z,96948.25
2022-09-15T19:39:39.951Z,96944.88
2022-09-15T19:42:07.842Z,96943.44
2022-09-15T19:44:35.036Z,96955.22
2022-09-15T19:47:03.891Z,96960.63
2022-09-15T19:49:31.022Z,96964.44
2022-09-15T19:51:58.111Z,96966.34
2022-09-15T19:54:28.373Z,96965.53
2022-09-15T19:56:55.827Z,96974.75
2022-09-15T19:59:27.450Z,96977.00
2022-09-15T20:01:57.647Z,96990.22
2022-09-15T20:04:26.136Z,96997.19
2022-09-15T20:06:53.612Z,96997.06
2022-09-15T20:09:20.729Z,96998.34
2022-09-15T20:11:47.937Z,96997.25
2022-09-15T20:14:15.416Z,96992.31
2022-09-15T20:16:42.715Z,96998.53
2022-09-15T20:19:09.935Z,97004.91
2022-09-15T20:21:55.835Z,96995.50
2022-09-15T20:24:23.550Z,96997.91
2022-09-15T20:26:51.084Z,96996.28
2022-09-15T20:29:18.666Z,96997.72
2022-09-15T20:31:45.984Z,97004.25
2022-09-15T20:34:13.214Z,96997.25
2022-09-15T20:36:41.633Z,97007.25
2022-09-15T20:39:12.002Z,97008.38
2022-09-15T20:41:39.887Z,97009.47
2022-09-15T20:44:07.200Z,97019.50
2022-09-15T20:46:34.711Z,97020.94
2022-09-15T20:49:02.057Z,97021.53
2022-09-15T20:51:30.260Z,97028.38
2022-09-15T20:54:00.167Z,97030.78
2022-09-15T20:56:29.193Z,97030.97
2022-09-15T20:58:57.571Z,97031.56
2022-09-15T21:01:26.433Z,97035.56
2022-09-15T21:03:54.202Z,97043.06
2022-09-15T21:06:23.320Z,97040.34
2022-09-15T21:08:50.682Z,97036.53
2022-09-15T21:11:20.645Z,97041.16
2022-09-15T21:13:48.677Z,97035.56
2022-09-15T21:16:17.661Z,97048.28
2022-09-15T21:18:45.261Z,97046.06
2022-09-15T21:21:14.349Z,97048.47
2022-09-15T21:23:43.219Z,97039.88
2022-09-15T21:26:12.085Z,97055.78
2022-09-15T21:28:41.210Z,97052.28
2022-09-15T21:31:10.392Z,97049.38
2022-09-15T21:33:38.520Z,97047.31
2022-09-15T21:36:07.733Z,97045.72
2022-09-15T21:38:34.821Z,97030.28
2022-09-15T21:41:02.325Z,97022.34
2022-09-15T21:43:30.499Z,97011.50
2022-09-15T21:45:59.028Z,97020.16
2022-09-15T21:48:26.155Z,97019.47
2022-09-15T21:50:54.054Z,97029.66
2022-09-15T21:53:21.185Z,97040.47
2022-09-15T21:55:48.733Z,97049.38
2022-09-15T21:58:16.281Z,97051.31
2022-09-15T22:00:43.607Z,97052.09
2022-09-15T22:03:12.281Z,97056.72
2022-09-15T22:05:40.144Z,97055.31
2022-09-15T22:08:08.814Z,97055.31
2022-09-15T22:10:36.422Z,97051.31
2022-09-15T22:13:04.279Z,97053.81
2022-09-15T22:15:31.490Z,97056.72
2022-09-15T22:17:58.720Z,97052.44
2022-09-15T22:20:27.935Z,97053.22
2022-09-15T22:22:55.670Z,97051.94
2022-09-15T22:25:22.776Z,97047.31
2022-09-15T22:27:49.844Z,97050.63
2022-09-15T22:30:17.142Z,97046.84
2022-09-15T22:32:44.293Z,97042.53
2022-09-15T22:35:11.394Z,97047.63
2022-09-15T22:37:39.831Z,97036.50
2022-09-15T22:40:07.849Z,97033.66
2022-09-15T22:42:34.949Z,97035.06
2022-09-15T22:45:02.068Z,97027.09
2022-09-15T22:47:29.218Z,97043.50
2022-09-15T22:49:56.307Z,97042.41
2022-09-15T22:52:23.400Z,97045.91
2022-09-15T22:54:51.830Z,97049.09
2022-09-15T22:57:18.929Z,97051.94
2022-09-15T22:59:46.019Z,97053.03
2022-09-15T23:02:13.190Z,97050.03
2022-09-15T23:04:40.296Z,97047.63
2022-09-15T23:07:07.396Z,97050.31
2022-09-15T23:09:34.490Z,97046.34
2022-09-15T23:12:03.091Z,97047.44
2022-09-15T23:14:30.158Z,97049.34
2022-09-15T23:16:57.247Z,97036.63
2022-09-15T23:19:24.320Z,97039.97
2022-09-15T23:21:51.416Z,97045.03
2022-09-15T23:24:18.546Z,97039.31
2022-09-15T23:26:45.659Z,97042.84
2022-09-15T23:29:14.216Z,97035.03
2022-09-15T23:31:41.354Z,97028.38
2022-09-15T23:34:08.581Z,97030.78
2022-09-15T23:36:35.691Z,97018.66
2022-09-15T23:39:03.785Z,97027.44
2022-09-15T23:41:30.878Z,97026.47
2022-09-15T23:43:57.966Z,97020.56
2022-09-15T23:46:26.496Z,97020.56
2022-09-15T23:48:53.634Z,97017.88
2022-09-15T23:51:20.749Z,97022.19
2022-09-15T23:53:47.948Z,97020.56
2022-09-15T23:56:15.257Z,97013.88
2022-09-15T23:58:42.392Z,97013.88
